Time;durP1;ratioP1;P1;durP2;ratioP2;P2;SDS_P1;SDS_P2;PMS_P1;PMS_P2;Temp;Humidity;BMP_temperature;BMP_pressure;BME280_temperature;BME280_humidity;BME280_pressure;Samples;Min_cycle;Max_cycle;Signal;HPM_P1;HPM_P2
2021/01/02 00:00:50;;;;;;;38.43;25.93;;;4.00;99.90;;;;;;5016224;28;20172;-78
2021/01/02 00:03:43;;;;;;;41.97;26.67;;;4.00;99.90;;;;;;5016957;28;20683;-78
2021/01/02 00:06:09;;;;;;;43.50;25.43;;;4.00;99.90;;;;;;5033161;28;20178;-78
2021/01/02 00:08:37;;;;;;;41.13;27.07;;;4.00;99.90;;;;;;5033613;28;20179;-78
2021/01/02 00:11:21;;;;;;;43.50;26.07;;;4.10;99.90;;;;;;5016038;28;20175;-78
2021/01/02 00:14:07;;;;;;;43.73;27.00;;;4.20;99.90;;;;;;5018451;28;20586;-78
2021/01/02 00:16:47;;;;;;;41.20;26.27;;;4.10;99.90;;;;;;5032724;28;20656;-76
2021/01/02 00:19:37;;;;;;;44.37;26.97;;;4.00;99.90;;;;;;5033764;28;20182;-78
2021/01/02 00:22:09;;;;;;;39.63;25.60;;;4.10;99.90;;;;;;5033603;28;20199;-76
2021/01/02 00:24:38;;;;;;;41.53;26.67;;;4.20;99.90;;;;;;5017016;28;20183;-76
2021/01/02 00:27:27;;;;;;;39.43;26.13;;;4.20;99.90;;;;;;5033197;28;20311;-76
2021/01/02 00:30:03;;;;;;;41.73;26.87;;;4.20;99.90;;;;;;5017719;28;20233;-76
2021/01/02 00:32:47;;;;;;;42.23;26.93;;;4.20;99.90;;;;;;5032259;28;20573;-77
2021/01/02 00:35:22;;;;;;;40.33;26.47;;;4.10;99.90;;;;;;5017094;28;20599;-76
2021/01/02 00:38:03;;;;;;;42.17;26.20;;;4.30;99.90;;;;;;5018639;28;20182;-76
2021/01/02 00:40:29;;;;;;;42.33;26.83;;;4.20;99.90;;;;;;5034792;28;20186;-77
2021/01/02 00:42:54;;;;;;;43.80;27.67;;;4.10;99.90;;;;;;5032132;28;20191;-77
2021/01/02 00:45:24;;;;;;;44.63;29.00;;;4.10;99.90;;;;;;5015225;28;20208;-76
2021/01/02 00:47:50;;;;;;;48.27;29.10;;;4.20;99.90;;;;;;5015670;28;20175;-76
2021/01/02 00:50:17;;;;;;;46.83;28.03;;;4.10;99.90;;;;;;5015850;28;20175;-76
2021/01/02 00:52:47;;;;;;;46.20;29.00;;;4.20;99.90;;;;;;5015490;28;20198;-76
2021/01/02 00:55:24;;;;;;;47.63;29.37;;;4.20;99.90;;;;;;5031939;28;20207;-75
2021/01/02 00:58:06;;;;;;;48.97;28.77;;;4.20;99.90;;;;;;5031846;28;20174;-76
2021/01/02 01:00:35;;;;;;;48.97;29.13;;;4.30;99.90;;;;;;5032299;28;20228;-76
2021/01/02 01:03:22;;;;;;;47.43;30.53;;;4.20;99.90;;;;;;5014636;28;20226;-76
2021/01/02 01:05:47;;;;;;;48.80;29.70;;;4.20;99.90;;;;;;5031661;28;20182;-76
2021/01/02 01:08:17;;;;;;;49.43;29.70;;;4.30;99.90;;;;;;5014473;28;20256;-76
2021/01/02 01:10:42;;;;;;;47.83;29.63;;;4.30;99.90;;;;;;5014753;28;20182;-76
2021/01/02 01:13:22;;;;;;;51.80;31.27;;;4.30;99.90;;;;;;5015437;28;20221;-76
2021/01/02 01:15:48;;;;;;;57.57;31.20;;;4.20;99.90;;;;;;5016231;28;20186;-76
2021/01/02 01:18:16;;;;;;;49.10;29.63;;;4.20;99.90;;;;;;5015248;28;20289;-76
2021/01/02 01:20:53;;;;;;;48.40;29.57;;;4.30;99.90;;;;;;5032687;28;20232;-76
2021/01/02 01:24:09;;;;;;;49.10;29.27;;;4.30;99.90;;;;;;5015674;28;20206;-76
2021/01/02 01:26:56;;;;;;;51.20;29.97;;;4.20;99.90;;;;;;5030078;28;20240;-76
2021/01/02 01:29:25;;;;;;;50.73;29.83;;;4.30;99.90;;;;;;5031538;28;20175;-76
2021/01/02 01:31:56;;;;;;;51.53;31.27;;;4.20;99.90;;;;;;5015436;28;20187;-76
2021/01/02 01:34:22;;;;;;;51.40;31.27;;;4.20;99.90;;;;;;5014885;28;20557;-76
2021/01/02 01:36:48;;;;;;;50.53;30.17;;;4.20;99.90;;;;;;5015009;28;20681;-76
2021/01/02 01:39:14;;;;;;;48.90;29.23;;;4.20;99.90;;;;;;5014966;28;20655;-76
2021/01/02 01:41:42;;;;;;;51.83;30.00;;;4.20;99.90;;;;;;5014607;28;20619;-76
2021/01/02 01:44:29;;;;;;;56.20;32.07;;;4.20;99.90;;;;;;5014784;28;20175;-76
2021/01/02 01:46:55;;;;;;;48.43;29.63;;;4.20;99.90;;;;;;5032542;28;20646;-76
2021/01/02 01:49:43;;;;;;;51.00;30.30;;;4.30;99.90;;;;;;5014892;28;20182;-76
2021/01/02 01:52:13;;;;;;;52.33;30.27;;;4.30;99.90;;;;;;5030708;28;20213;-76
2021/01/02 01:55:07;;;;;;;54.90;30.63;;;4.20;99.90;;;;;;5031138;28;20566;-76
2021/01/02 01:57:37;;;;;;;57.93;31.57;;;4.30;99.90;;;;;;5031019;28;20657;-76
2021/01/02 02:00:13;;;;;;;58.77;32.50;;;4.20;99.90;;;;;;5015130;28;20238;-76
2021/01/02 02:02:44;;;;;;;54.47;31.73;;;4.20;99.90;;;;;;5030986;28;20193;-76
2021/01/02 02:05:21;;;;;;;60.73;32.20;;;4.20;99.90;;;;;;5030996;28;20178;-76
2021/01/02 02:07:53;;;;;;;57.83;32.73;;;4.20;99.90;;;;;;5014240;28;20210;-76
2021/01/02 02:10:43;;;;;;;55.43;31.03;;;4.20;99.90;;;;;;5034862;28;20178;-76
2021/01/02 02:13:20;;;;;;;54.27;31.20;;;4.20;99.90;;;;;;5035311;28;20219;-76
2021/01/02 02:15:49;;;;;;;58.20;32.20;;;4.20;99.90;;;;;;5018728;28;20225;-76
2021/01/02 02:18:21;;;;;;;60.00;32.60;;;4.20;99.90;;;;;;5034313;28;20171;-76
2021/01/02 02:20:48;;;;;;;59.07;32.63;;;4.20;99.90;;;;;;5018789;28;20665;-76
2021/01/02 02:23:14;;;;;;;60.00;32.33;;;4.10;99.90;;;;;;5018455;28;20665;-76
2021/01/02 02:25:59;;;;;;;59.73;31.97;;;4.30;99.90;;;;;;5018520;28;20235;-76
2021/01/02 02:28:47;;;;;;;55.47;31.83;;;4.20;99.90;;;;;;5019113;28;20175;-76
2021/01/02 02:31:13;;;;;;;58.50;31.80;;;4.30;99.90;;;;;;5034474;28;20226;-76
2021/01/02 02:33:40;;;;;;;53.30;31.10;;;4.30;99.90;;;;;;5017848;28;20205;-76
2021/01/02 02:36:06;;;;;;;53.03;32.00;;;4.20;99.90;;;;;;5017966;28;20692;-76
2021/01/02 02:38:38;;;;;;;52.83;32.10;;;4.10;99.90;;;;;;5034362;28;20182;-76
2021/01/02 02:41:08;;;;;;;54.33;32.40;;;4.10;99.90;;;;;;5018036;28;20591;-77
2021/01/02 02:43:34;;;;;;;58.07;33.70;;;4.20;99.90;;;;;;5018492;28;20218;-76
2021/01/02 02:45:59;;;;;;;56.60;32.77;;;4.10;99.90;;;;;;5017873;28;20573;-77
2021/01/02 02:48:25;;;;;;;62.17;34.10;;;4.20;99.90;;;;;;5017927;28;20262;-77
2021/01/02 02:50:52;;;;;;;58.87;33.80;;;4.30;99.90;;;;;;5017664;28;20577;-77
2021/01/02 02:53:18;;;;;;;57.60;34.03;;;4.30;99.90;;;;;;5033872;28;20202;-77
2021/01/02 02:55:44;;;;;;;56.47;34.00;;;4.20;99.90;;;;;;5017536;28;20209;-77
2021/01/02 02:58:10;;;;;;;57.73;33.87;;;4.30;99.90;;;;;;5017465;28;20235;-76
2021/01/02 03:00:36;;;;;;;62.70;34.17;;;4.30;99.90;;;;;;5017626;28;20179;-77
2021/01/02 03:03:02;;;;;;;68.53;37.30;;;4.20;99.90;;;;;;5034074;28;20230;-76
2021/01/02 03:05:28;;;;;;;61.43;35.23;;;4.30;99.90;;;;;;5017722;28;20271;-76
2021/01/02 03:07:53;;;;;;;58.13;35.53;;;4.20;99.90;;;;;;5033430;28;20210;-76
2021/01/02 03:10:20;;;;;;;66.70;37.80;;;4.10;99.90;;;;;;5017656;28;20209;-76
2021/01/02 03:12:47;;;;;;;59.17;35.67;;;4.30;99.90;;;;;;5033741;28;20225;-76
2021/01/02 03:15:14;;;;;;;63.33;36.27;;;4.30;99.90;;;;;;5017364;28;20214;-76
2021/01/02 03:17:41;;;;;;;66.57;36.90;;;4.10;99.90;;;;;;5033827;28;20178;-76
2021/01/02 03:20:07;;;;;;;62.23;36.77;;;4.20;99.90;;;;;;5017143;28;20573;-76
2021/01/02 03:22:33;;;;;;;67.10;35.07;;;4.20;99.90;;;;;;5017150;28;20211;-76
2021/01/02 03:24:58;;;;;;;60.07;36.57;;;4.20;99.90;;;;;;5017417;28;20217;-76
2021/01/02 03:27:24;;;;;;;63.27;35.90;;;4.20;99.90;;;;;;5016990;28;20190;-76
2021/01/02 03:29:49;;;;;;;69.20;36.20;;;4.10;99.90;;;;;;5033653;28;20180;-76
2021/01/02 03:32:15;;;;;;;68.93;36.37;;;4.10;99.90;;;;;;5016006;28;20293;-76
2021/01/02 03:34:41;;;;;;;68.30;37.33;;;4.10;99.90;;;;;;5016937;28;20298;-76
2021/01/02 03:37:08;;;;;;;73.30;38.73;;;4.10;99.90;;;;;;5016989;28;20699;-76
2021/01/02 03:39:33;;;;;;;67.83;35.77;;;4.10;99.90;;;;;;5017267;28;20198;-76
2021/01/02 03:41:59;;;;;;;71.57;37.43;;;4.20;99.90;;;;;;5033677;28;20233;-76
2021/01/02 03:44:24;;;;;;;70.70;38.47;;;4.20;99.90;;;;;;5033416;28;20262;-76
2021/01/02 03:46:50;;;;;;;72.73;38.40;;;4.10;99.90;;;;;;5016758;28;20173;-76
2021/01/02 03:49:15;;;;;;;68.30;36.97;;;4.10;99.90;;;;;;5033343;28;20182;-77
2021/01/02 03:51:41;;;;;;;72.53;36.77;;;4.00;99.90;;;;;;5016306;28;20182;-76
2021/01/02 03:54:06;;;;;;;70.17;37.40;;;4.10;99.90;;;;;;5016612;28;20178;-76
2021/01/02 03:56:32;;;;;;;69.77;38.20;;;4.00;99.90;;;;;;5016768;28;20181;-76
2021/01/02 03:58:57;;;;;;;70.37;38.43;;;4.00;99.90;;;;;;5033159;28;20229;-76
2021/01/02 04:01:23;;;;;;;68.53;37.87;;;4.10;99.90;;;;;;5016773;28;20212;-76
2021/01/02 04:03:49;;;;;;;67.27;37.10;;;4.10;99.90;;;;;;5016003;28;20233;-77
2021/01/02 04:06:14;;;;;;;67.67;37.13;;;4.00;99.90;;;;;;5016574;28;20179;-77
2021/01/02 04:08:40;;;;;;;70.43;37.57;;;4.10;99.90;;;;;;5016361;28;20616;-76
2021/01/02 04:11:06;;;;;;;68.43;37.37;;;4.20;99.90;;;;;;5016819;28;20171;-77
2021/01/02 04:13:32;;;;;;;67.70;38.13;;;4.10;99.90;;;;;;5016452;28;20581;-76
2021/01/02 04:15:57;;;;;;;69.77;35.60;;;4.00;99.90;;;;;;5016144;28;20213;-76
2021/01/02 04:18:23;;;;;;;65.30;36.13;;;4.00;99.90;;;;;;5032750;28;20197;-76
2021/01/02 04:20:48;;;;;;;64.27;35.63;;;4.10;99.90;;;;;;5016421;28;20254;-76
2021/01/02 04:23:14;;;;;;;69.17;37.47;;;4.00;99.90;;;;;;5016527;28;20612;-76
2021/01/02 04:25:40;;;;;;;67.83;37.00;;;4.00;99.90;;;;;;5033781;28;20206;-76
2021/01/02 04:28:10;;;;;;;65.83;37.33;;;4.00;99.90;;;;;;5016332;28;20581;-76
2021/01/02 04:30:36;;;;;;;67.07;36.40;;;4.00;99.90;;;;;;5016485;28;20179;-76
2021/01/02 04:33:01;;;;;;;66.63;37.13;;;4.00;99.90;;;;;;5015643;28;20198;-76
2021/01/02 04:35:27;;;;;;;65.87;37.63;;;4.00;99.90;;;;;;5016091;28;20206;-76
2021/01/02 04:37:52;;;;;;;68.73;35.07;;;4.00;99.90;;;;;;5016650;28;20183;-76
2021/01/02 04:40:18;;;;;;;67.47;36.07;;;4.00;99.90;;;;;;5016100;28;20551;-76
2021/01/02 04:42:43;;;;;;;69.37;36.07;;;4.00;99.90;;;;;;5032434;28;20317;-77
2021/01/02 04:45:10;;;;;;;65.90;35.80;;;4.00;99.90;;;;;;5016010;28;20834;-76
2021/01/02 04:47:37;;;;;;;66.57;36.90;;;4.00;99.90;;;;;;5015685;28;20261;-76
2021/01/02 04:50:05;;;;;;;69.50;35.93;;;4.00;99.90;;;;;;5015641;28;20184;-76
2021/01/02 04:52:30;;;;;;;66.27;36.80;;;3.90;99.90;;;;;;5015746;28;20293;-76
2021/01/02 04:54:56;;;;;;;70.17;38.73;;;3.90;99.90;;;;;;5015508;28;20290;-76
2021/01/02 04:57:21;;;;;;;65.23;37.70;;;3.90;99.90;;;;;;5015467;28;20205;-76
2021/01/02 04:59:49;;;;;;;68.90;35.90;;;3.90;99.90;;;;;;5015645;28;20213;-76
2021/01/02 05:02:15;;;;;;;70.07;37.90;;;4.00;99.90;;;;;;5015896;28;20203;-77
2021/01/02 05:04:47;;;;;;;69.33;37.10;;;4.00;99.90;;;;;;5015449;28;20554;-76
2021/01/02 05:07:25;;;;;;;71.13;36.80;;;4.00;99.90;;;;;;5031624;28;20602;-76
2021/01/02 05:09:51;;;;;;;72.30;37.63;;;3.90;99.90;;;;;;5015959;28;20171;-76
2021/01/02 05:12:30;;;;;;;73.47;37.90;;;3.90;99.90;;;;;;5015146;28;20593;-77
2021/01/02 05:15:02;;;;;;;72.43;36.87;;;3.90;99.90;;;;;;5016404;28;20605;-77
2021/01/02 05:17:28;;;;;;;69.57;36.70;;;4.00;99.90;;;;;;5031963;28;20186;-76
2021/01/02 05:20:02;;;;;;;70.60;37.40;;;4.00;99.90;;;;;;5015109;28;20175;-76
2021/01/02 05:22:28;;;;;;;69.63;36.37;;;3.90;99.90;;;;;;5015272;28;20225;-76
2021/01/02 05:25:07;;;;;;;71.00;38.30;;;3.90;99.90;;;;;;5015129;28;20189;-76
2021/01/02 05:27:34;;;;;;;70.23;37.33;;;3.80;99.90;;;;;;5031233;28;20214;-76
2021/01/02 05:30:28;;;;;;;73.80;37.83;;;3.90;99.90;;;;;;5015007;28;20244;-76
2021/01/02 05:32:57;;;;;;;69.53;35.53;;;3.90;99.90;;;;;;5016937;28;20225;-76
2021/01/02 05:35:24;;;;;;;73.07;38.90;;;3.90;99.90;;;;;;5032726;28;20241;-77
2021/01/02 05:37:49;;;;;;;74.40;38.43;;;3.90;99.90;;;;;;5015261;28;20167;-76
2021/01/02 05:40:41;;;;;;;71.20;37.90;;;3.80;99.90;;;;;;5014544;28;20179;-77
2021/01/02 05:43:06;;;;;;;62.83;35.67;;;3.80;99.90;;;;;;5014432;28;20598;-76
2021/01/02 05:45:32;;;;;;;69.37;37.30;;;3.80;99.90;;;;;;5014775;28;20221;-76
2021/01/02 05:48:10;;;;;;;75.80;37.67;;;3.90;99.90;;;;;;5015076;28;20178;-76
2021/01/02 05:50:39;;;;;;;67.57;37.47;;;3.90;99.90;;;;;;5031589;28;20214;-76
2021/01/02 05:53:05;;;;;;;67.97;37.60;;;3.80;99.90;;;;;;5015506;28;20195;-76
2021/01/02 05:55:31;;;;;;;74.83;37.57;;;3.90;99.90;;;;;;5014885;28;20206;-76
2021/01/02 05:57:59;;;;;;;69.20;35.70;;;3.90;99.90;;;;;;5014765;28;20175;-76
2021/01/02 06:00:24;;;;;;;66.90;35.40;;;3.80;99.90;;;;;;5015079;28;20178;-76
2021/01/02 06:02:50;;;;;;;70.77;38.03;;;3.90;99.90;;;;;;5014724;28;20711;-76
2021/01/02 06:05:15;;;;;;;69.57;37.93;;;3.90;99.90;;;;;;5014556;28;20725;-76
2021/01/02 06:07:48;;;;;;;64.90;36.73;;;3.90;99.90;;;;;;5014595;28;20372;-77
2021/01/02 06:10:13;;;;;;;70.83;37.73;;;3.80;99.90;;;;;;5017223;28;20642;-77
2021/01/02 06:12:40;;;;;;;68.50;37.07;;;3.80;99.90;;;;;;5016114;28;20236;-76
2021/01/02 06:15:10;;;;;;;73.57;36.43;;;3.70;99.90;;;;;;5016627;28;20291;-77
2021/01/02 06:17:37;;;;;;;71.93;36.50;;;3.70;99.90;;;;;;5031798;28;20168;-76
2021/01/02 06:20:05;;;;;;;67.07;35.53;;;3.70;99.90;;;;;;5015134;28;20163;-76
2021/01/02 06:22:31;;;;;;;68.20;36.03;;;3.70;99.90;;;;;;5014778;28;20670;-76
2021/01/02 06:24:57;;;;;;;65.53;35.07;;;3.60;99.90;;;;;;5034104;28;20273;-76
2021/01/02 06:27:22;;;;;;;70.43;35.97;;;3.60;99.90;;;;;;5017920;28;20174;-76
2021/01/02 06:29:58;;;;;;;66.40;33.47;;;3.70;99.90;;;;;;5019831;28;20179;-76
2021/01/02 06:32:24;;;;;;;61.33;32.27;;;3.70;99.90;;;;;;5019312;28;20198;-76
2021/01/02 06:35:13;;;;;;;60.17;31.33;;;3.70;99.90;;;;;;5018439;28;20202;-76
2021/01/02 06:37:48;;;;;;;60.07;31.77;;;3.80;99.90;;;;;;5031446;28;20187;-76
2021/01/02 06:40:20;;;;;;;65.13;32.70;;;3.70;99.90;;;;;;5030783;28;20217;-76
2021/01/02 06:42:58;;;;;;;62.27;31.60;;;3.80;99.90;;;;;;5031901;28;20268;-76
2021/01/02 06:45:39;;;;;;;61.63;31.67;;;3.70;99.90;;;;;;5030863;28;20626;-76
2021/01/02 06:48:17;;;;;;;61.83;31.13;;;3.70;99.90;;;;;;5030485;28;20206;-76
2021/01/02 06:50:42;;;;;;;60.20;32.23;;;3.70;99.90;;;;;;5030473;28;20465;-76
2021/01/02 06:53:23;;;;;;;59.27;32.17;;;3.60;99.90;;;;;;5030464;28;20241;-76
2021/01/02 06:56:07;;;;;;;59.63;32.10;;;3.60;99.90;;;;;;5032645;28;20206;-76
2021/01/02 06:58:37;;;;;;;52.00;29.47;;;3.60;99.90;;;;;;5017674;28;20326;-77
2021/01/02 07:01:03;;;;;;;53.83;29.63;;;3.70;99.90;;;;;;5017811;28;20170;-77
2021/01/02 07:03:44;;;;;;;52.57;29.30;;;3.60;99.90;;;;;;5017600;28;20290;-77
2021/01/02 07:06:24;;;;;;;55.23;29.03;;;3.70;99.90;;;;;;5033654;28;20199;-76
2021/01/02 07:08:59;;;;;;;50.83;28.03;;;3.60;99.90;;;;;;5034691;28;20576;-76
2021/01/02 07:11:35;;;;;;;50.93;28.23;;;3.60;99.90;;;;;;5017419;28;20227;-76
2021/01/02 07:14:09;;;;;;;55.50;29.20;;;3.60;99.90;;;;;;5034093;28;20201;-76
2021/01/02 07:16:50;;;;;;;57.53;28.97;;;3.70;99.90;;;;;;5033009;28;20740;-76
2021/01/02 07:19:31;;;;;;;48.37;27.00;;;3.60;99.90;;;;;;5033545;28;20226;-77
2021/01/02 07:22:04;;;;;;;52.63;29.07;;;3.60;99.90;;;;;;5033360;28;20218;-77
2021/01/02 07:24:46;;;;;;;52.70;27.43;;;3.60;99.90;;;;;;5033026;28;20198;-76
2021/01/02 07:27:15;;;;;;;53.07;29.43;;;3.60;99.90;;;;;;5033038;28;20579;-76
2021/01/02 07:29:42;;;;;;;54.60;29.17;;;3.60;99.90;;;;;;5032947;28;20200;-77
2021/01/02 07:32:24;;;;;;;50.00;27.23;;;3.60;99.90;;;;;;5016752;28;20203;-77
2021/01/02 07:34:57;;;;;;;55.20;29.73;;;3.60;99.90;;;;;;5016591;28;20573;-77
2021/01/02 07:37:33;;;;;;;49.53;27.47;;;3.60;99.90;;;;;;5016862;28;20260;-76
2021/01/02 07:40:01;;;;;;;51.43;29.77;;;3.60;99.90;;;;;;5016817;28;20235;-76
2021/01/02 07:42:28;;;;;;;55.03;29.10;;;3.60;99.90;;;;;;5032644;28;20198;-77
2021/01/02 07:44:55;;;;;;;46.67;27.47;;;3.60;99.90;;;;;;5016438;28;20217;-77
2021/01/02 07:47:21;;;;;;;52.57;27.80;;;3.60;99.90;;;;;;5016183;28;20199;-76
2021/01/02 07:49:47;;;;;;;50.37;28.27;;;3.70;99.90;;;;;;5032709;28;20206;-76
2021/01/02 07:52:12;;;;;;;49.70;27.47;;;3.60;99.90;;;;;;5016283;28;20555;-77
2021/01/02 07:54:38;;;;;;;50.47;27.80;;;3.60;99.90;;;;;;5032608;28;20203;-77
2021/01/02 07:57:05;;;;;;;51.17;27.70;;;3.60;99.90;;;;;;5015910;28;20250;-77
2021/01/02 07:59:33;;;;;;;52.30;27.60;;;3.50;99.90;;;;;;5016192;28;20171;-76
2021/01/02 08:02:02;;;;;;;44.10;27.30;;;3.50;99.90;;;;;;5032429;28;20221;-77
2021/01/02 08:04:29;;;;;;;45.23;24.90;;;3.60;99.90;;;;;;5016201;28;20250;-77
2021/01/02 08:06:56;;;;;;;44.73;25.07;;;3.60;99.90;;;;;;5015680;28;20701;-77
2021/01/02 08:09:22;;;;;;;48.80;26.97;;;3.60;99.90;;;;;;5016047;28;20167;-76
2021/01/02 08:11:52;;;;;;;43.57;26.27;;;3.60;99.90;;;;;;5015265;28;20252;-76
2021/01/02 08:14:18;;;;;;;46.37;26.43;;;3.50;99.90;;;;;;5015842;28;20224;-77
2021/01/02 08:17:03;;;;;;;49.90;28.27;;;3.50;99.90;;;;;;5015562;28;20634;-76
2021/01/02 08:19:32;;;;;;;52.13;27.97;;;3.60;99.90;;;;;;5032225;28;20178;-77
2021/01/02 08:21:59;;;;;;;51.60;28.47;;;3.60;99.90;;;;;;5015772;28;20217;-77
2021/01/02 08:24:24;;;;;;;48.13;27.80;;;3.70;99.90;;;;;;5015462;28;20186;-77
2021/01/02 08:26:50;;;;;;;50.77;27.07;;;3.60;99.90;;;;;;5032808;28;20638;-77
2021/01/02 08:29:16;;;;;;;54.10;28.07;;;3.70;99.90;;;;;;5015566;28;20172;-76
2021/01/02 08:31:49;;;;;;;44.70;25.80;;;3.70;99.90;;;;;;5015049;28;20171;-77
2021/01/02 08:34:23;;;;;;;50.80;26.27;;;3.60;99.90;;;;;;5015628;28;20171;-77
2021/01/02 08:36:49;;;;;;;46.27;26.27;;;3.60;99.90;;;;;;5015242;28;20214;-77
2021/01/02 08:39:18;;;;;;;49.93;27.20;;;3.70;99.90;;;;;;5031593;28;20186;-77
2021/01/02 08:41:49;;;;;;;49.97;27.30;;;3.70;99.90;;;;;;5031248;28;20183;-77
2021/01/02 08:44:20;;;;;;;48.97;26.50;;;3.70;99.90;;;;;;5015359;28;20654;-77
2021/01/02 08:46:46;;;;;;;55.00;26.63;;;3.60;99.90;;;;;;5015268;28;20181;-77
2021/01/02 08:49:11;;;;;;;44.97;25.33;;;3.60;99.90;;;;;;5015152;28;20186;-76
2021/01/02 08:51:37;;;;;;;50.00;26.80;;;3.60;99.90;;;;;;5014928;28;20280;-76
2021/01/02 08:54:14;;;;;;;51.33;26.33;;;3.70;99.90;;;;;;5014831;28;20186;-77
2021/01/02 08:56:40;;;;;;;49.63;25.20;;;3.80;99.90;;;;;;5014666;28;20229;-76
2021/01/02 08:59:11;;;;;;;47.77;25.00;;;3.80;99.90;;;;;;5015057;28;20643;-77
2021/01/02 09:01:36;;;;;;;46.53;25.93;;;3.80;99.90;;;;;;5014842;28;20202;-77
2021/01/02 09:04:14;;;;;;;46.47;25.70;;;3.80;99.90;;;;;;5014912;28;20247;-77
2021/01/02 09:06:39;;;;;;;46.57;24.93;;;3.90;99.90;;;;;;5014337;28;20194;-77
2021/01/02 09:09:06;;;;;;;53.33;26.47;;;3.80;99.90;;;;;;5031236;28;20179;-77
2021/01/02 09:11:50;;;;;;;44.33;25.37;;;3.90;99.90;;;;;;5014704;28;20639;-77
2021/01/02 09:14:17;;;;;;;48.37;25.77;;;3.90;99.90;;;;;;5014763;28;20190;-77
2021/01/02 09:17:02;;;;;;;50.13;25.33;;;3.90;99.90;;;;;;5030779;28;20294;-76
2021/01/02 09:19:27;;;;;;;48.53;26.67;;;3.80;99.90;;;;;;5014275;28;20190;-77
2021/01/02 09:21:53;;;;;;;49.40;26.13;;;3.80;99.90;;;;;;5014187;28;20206;-77
2021/01/02 09:24:22;;;;;;;47.57;26.60;;;3.80;99.90;;;;;;5014524;28;20182;-78
2021/01/02 09:26:47;;;;;;;46.57;25.97;;;3.80;99.90;;;;;;5014324;28;20187;-77
2021/01/02 09:29:14;;;;;;;47.67;26.37;;;3.80;99.90;;;;;;5014244;28;20198;-76
2021/01/02 09:31:40;;;;;;;49.77;26.70;;;3.90;99.90;;;;;;5014092;28;20189;-76
2021/01/02 09:34:06;;;;;;;50.13;27.13;;;3.90;99.90;;;;;;5014540;28;20667;-77
2021/01/02 09:36:31;;;;;;;49.40;25.80;;;4.00;99.90;;;;;;5014237;28;20713;-77
2021/01/02 09:38:57;;;;;;;45.27;25.80;;;4.10;99.90;;;;;;5014560;28;20193;-77
2021/01/02 09:41:23;;;;;;;45.00;26.17;;;4.10;99.90;;;;;;5014331;28;20179;-77
2021/01/02 09:43:49;;;;;;;45.27;26.43;;;4.10;99.90;;;;;;5030635;28;20186;-77
2021/01/02 09:46:17;;;;;;;50.07;26.43;;;4.10;99.90;;;;;;5014143;28;20728;-77
2021/01/02 09:48:44;;;;;;;48.67;26.97;;;4.10;99.90;;;;;;5032153;28;20364;-77
2021/01/02 09:51:10;;;;;;;50.40;25.50;;;4.10;99.90;;;;;;5030879;28;20209;-77
2021/01/02 09:53:35;;;;;;;46.00;25.70;;;4.10;99.90;;;;;;5014563;28;20228;-77
2021/01/02 09:56:01;;;;;;;49.93;26.07;;;4.00;99.90;;;;;;5030469;28;20209;-77
2021/01/02 09:58:27;;;;;;;45.37;25.10;;;3.90;99.90;;;;;;5030139;28;20205;-76
2021/01/02 10:00:52;;;;;;;47.10;26.47;;;4.00;99.90;;;;;;5013948;28;20183;-77
2021/01/02 10:03:18;;;;;;;48.83;27.23;;;4.10;99.90;;;;;;5014065;28;20191;-77
2021/01/02 10:05:43;;;;;;;52.87;28.60;;;4.20;99.90;;;;;;5013975;28;20174;-77
2021/01/02 10:08:09;;;;;;;48.00;27.43;;;4.20;99.90;;;;;;5030307;28;20177;-77
2021/01/02 10:10:35;;;;;;;54.80;28.63;;;4.20;99.90;;;;;;5030150;28;20170;-77
2021/01/02 10:13:00;;;;;;;53.63;28.37;;;4.30;99.90;;;;;;5013724;28;20238;-77
2021/01/02 10:15:26;;;;;;;47.70;26.47;;;4.20;99.90;;;;;;5030329;28;20210;-77
2021/01/02 10:17:52;;;;;;;50.93;28.57;;;4.30;99.90;;;;;;5013819;28;20184;-76
2021/01/02 10:20:17;;;;;;;54.17;26.93;;;4.30;99.90;;;;;;5030374;28;20174;-76
2021/01/02 10:22:43;;;;;;;47.90;26.60;;;4.40;99.90;;;;;;5013631;28;20202;-77
2021/01/02 10:25:09;;;;;;;52.17;27.03;;;4.40;99.90;;;;;;5030562;28;20171;-76
2021/01/02 10:27:35;;;;;;;44.47;25.17;;;4.50;99.90;;;;;;5013484;28;20241;-77
2021/01/02 10:30:01;;;;;;;49.37;27.80;;;4.40;99.90;;;;;;5031240;28;20171;-77
2021/01/02 10:32:28;;;;;;;49.83;28.77;;;4.40;99.90;;;;;;5017381;28;20237;-76
2021/01/02 10:34:53;;;;;;;49.87;26.53;;;4.50;99.90;;;;;;5017230;28;20211;-77
2021/01/02 10:37:21;;;;;;;46.53;26.77;;;4.50;99.90;;;;;;5017248;28;20280;-76
2021/01/02 10:39:47;;;;;;;49.43;28.00;;;4.50;99.90;;;;;;5033950;28;20171;-76
2021/01/02 10:42:13;;;;;;;51.60;28.70;;;4.60;99.90;;;;;;5017245;28;20209;-77
2021/01/02 10:44:45;;;;;;;51.37;26.77;;;4.50;99.90;;;;;;5017305;28;20175;-77
2021/01/02 10:47:12;;;;;;;47.93;27.03;;;4.40;99.90;;;;;;5017520;28;20634;-77
2021/01/02 10:49:37;;;;;;;52.10;27.43;;;4.50;99.90;;;;;;5017526;28;20171;-76
2021/01/02 10:52:03;;;;;;;48.07;27.03;;;4.40;99.90;;;;;;5017684;28;20218;-77
2021/01/02 10:54:28;;;;;;;50.10;27.03;;;4.40;99.90;;;;;;5033649;28;20203;-78
2021/01/02 10:56:54;;;;;;;52.17;28.00;;;4.40;99.90;;;;;;5016536;28;20186;-77
2021/01/02 10:59:22;;;;;;;50.70;28.17;;;4.50;99.90;;;;;;5017119;28;20179;-77
2021/01/02 11:01:54;;;;;;;52.77;28.40;;;4.50;99.90;;;;;;5033419;28;20262;-78
2021/01/02 11:04:20;;;;;;;52.67;29.87;;;4.40;99.90;;;;;;5017034;28;20752;-78
2021/01/02 11:06:49;;;;;;;49.03;26.80;;;4.40;99.90;;;;;;5016515;28;20185;-77
2021/01/02 11:09:14;;;;;;;51.00;27.47;;;4.50;99.90;;;;;;5016824;28;20187;-77
2021/01/02 11:11:41;;;;;;;54.27;29.10;;;4.50;99.90;;;;;;5016767;28;20175;-77
2021/01/02 11:14:06;;;;;;;51.83;27.33;;;4.60;99.90;;;;;;5033120;28;20253;-77
2021/01/02 11:16:33;;;;;;;51.63;29.40;;;4.60;99.90;;;;;;5016364;28;20207;-77
2021/01/02 11:18:58;;;;;;;52.43;27.57;;;4.70;99.90;;;;;;5033137;28;20169;-77
2021/01/02 11:21:24;;;;;;;51.20;27.30;;;4.70;99.90;;;;;;5016729;28;20171;-78
2021/01/02 11:23:50;;;;;;;54.77;28.53;;;4.60;99.90;;;;;;5016493;28;20245;-77
2021/01/02 11:26:15;;;;;;;52.67;28.73;;;4.60;99.90;;;;;;5016340;28;20226;-77
2021/01/02 11:28:42;;;;;;;54.67;29.30;;;4.60;99.90;;;;;;5016601;28;20179;-77
2021/01/02 11:31:07;;;;;;;49.67;26.87;;;4.80;99.90;;;;;;5016720;28;20240;-76
2021/01/02 11:33:33;;;;;;;56.87;30.07;;;4.90;99.90;;;;;;5032704;28;20521;-76
2021/01/02 11:35:58;;;;;;;54.03;29.77;;;4.90;99.90;;;;;;5016557;28;20210;-77
2021/01/02 11:38:24;;;;;;;53.27;29.73;;;4.70;99.90;;;;;;5033403;28;20186;-77
2021/01/02 11:40:50;;;;;;;52.50;28.20;;;4.60;99.90;;;;;;5015983;28;20182;-76
2021/01/02 11:43:16;;;;;;;53.33;30.33;;;4.70;99.90;;;;;;5016272;28;20198;-76
2021/01/02 11:45:41;;;;;;;52.70;28.33;;;4.80;99.90;;;;;;5018059;28;20270;-78
2021/01/02 11:48:07;;;;;;;52.97;29.83;;;4.90;99.90;;;;;;5033282;28;20229;-78
2021/01/02 11:50:33;;;;;;;48.77;28.47;;;4.90;99.90;;;;;;5016857;28;20187;-78
2021/01/02 11:52:58;;;;;;;52.97;28.40;;;4.90;99.90;;;;;;5032840;28;20199;-78
2021/01/02 11:55:24;;;;;;;53.03;29.87;;;5.00;99.90;;;;;;5016409;28;20221;-77
2021/01/02 11:57:49;;;;;;;48.97;27.63;;;4.90;99.90;;;;;;5016589;28;20571;-77
2021/01/02 12:00:15;;;;;;;52.17;27.90;;;4.80;99.90;;;;;;5032625;28;20179;-77
2021/01/02 12:02:41;;;;;;;54.93;28.70;;;4.80;99.90;;;;;;5032782;28;20276;-76
2021/01/02 12:05:07;;;;;;;52.63;28.60;;;4.80;99.90;;;;;;5033684;28;20202;-78
2021/01/02 12:07:33;;;;;;;56.50;29.03;;;4.80;99.90;;;;;;5015364;28;20509;-76
2021/01/02 12:09:58;;;;;;;51.73;28.57;;;4.70;99.90;;;;;;5015739;28;20285;-77
2021/01/02 12:12:24;;;;;;;54.70;28.53;;;4.80;99.90;;;;;;5015490;28;20229;-77
2021/01/02 12:14:49;;;;;;;59.07;29.73;;;4.90;99.90;;;;;;5031895;28;20260;-77
2021/01/02 12:17:15;;;;;;;52.17;29.03;;;4.90;99.90;;;;;;5032260;28;20218;-77
2021/01/02 12:19:42;;;;;;;53.53;29.63;;;4.80;99.90;;;;;;5032014;28;20615;-75
2021/01/02 12:22:08;;;;;;;52.23;28.93;;;4.90;99.90;;;;;;5016365;28;20613;-76
2021/01/02 12:24:34;;;;;;;55.93;29.43;;;4.90;99.90;;;;;;5015493;28;20234;-76
2021/01/02 12:27:02;;;;;;;53.97;29.13;;;5.00;99.90;;;;;;5015127;28;20179;-76
2021/01/02 12:29:28;;;;;;;56.17;30.27;;;5.00;99.90;;;;;;5015603;28;20250;-77
2021/01/02 12:31:56;;;;;;;54.77;29.87;;;5.10;99.90;;;;;;5015471;28;20194;-77
2021/01/02 12:34:26;;;;;;;54.70;31.00;;;5.00;99.90;;;;;;5015507;28;20166;-77
2021/01/02 12:36:52;;;;;;;55.57;30.03;;;4.80;99.90;;;;;;5015032;28;20597;-77
2021/01/02 12:39:26;;;;;;;55.17;30.00;;;4.90;99.90;;;;;;5033195;28;20185;-77
2021/01/02 12:41:51;;;;;;;52.10;28.80;;;4.90;99.90;;;;;;5015381;28;20190;-77
2021/01/02 12:44:17;;;;;;;57.60;31.77;;;4.90;99.90;;;;;;5015204;28;20562;-76
2021/01/02 12:46:45;;;;;;;51.43;30.07;;;4.90;99.90;;;;;;5014732;28;20186;-77